Time;durP1;ratioP1;P1;durP2;ratioP2;P2;SDS_P1;SDS_P2;PMS_P1;PMS_P2;Temp;Humidity;BMP_temperature;BMP_pressure;BME280_temperature;BME280_humidity;BME280_pressure;Samples;Min_cycle;Max_cycle;Signal;HPM_P1;HPM_P2
2022/12/25 00:00:55;;;;;;;58.03;22.30;;;;;;;13.42;63.12;101523.72;5021714;28;20547;-69
2022/12/25 00:03:20;;;;;;;54.50;18.80;;;;;;;13.18;63.86;101522.75;5025239;28;20037;-73
2022/12/25 00:05:46;;;;;;;62.38;20.85;;;;;;;13.04;65.13;101515.88;5022798;28;20030;-69
2022/12/25 00:08:11;;;;;;;59.40;20.65;;;;;;;13.39;63.58;101510.66;5023954;28;20042;-70
2022/12/25 00:10:36;;;;;;;55.03;21.08;;;;;;;13.14;63.96;101499.97;5023878;28;20044;-69
2022/12/25 00:13:02;;;;;;;67.95;22.40;;;;;;;13.33;63.80;101497.22;5022456;28;20121;-69
2022/12/25 00:15:27;;;;;;;82.03;20.35;;;;;;;13.25;63.40;101492.16;5022608;28;20037;-68
2022/12/25 00:17:53;;;;;;;72.72;20.92;;;;;;;13.14;63.99;101483.78;5024173;28;20111;-69
2022/12/25 00:20:18;;;;;;;49.20;19.08;;;;;;;13.14;63.98;101472.16;5018998;28;20374;-68
2022/12/25 00:22:43;;;;;;;45.75;20.30;;;;;;;13.37;63.33;101474.97;5022738;28;20033;-69
2022/12/25 00:25:09;;;;;;;54.85;21.25;;;;;;;13.25;63.78;101454.38;5022930;28;20030;-69
2022/12/25 00:27:36;;;;;;;54.83;18.35;;;;;;;13.17;64.26;101453.63;5021475;28;20042;-69
2022/12/25 00:30:03;;;;;;;53.90;19.90;;;;;;;13.01;64.29;101448.81;5022646;28;20021;-69
2022/12/25 00:32:28;;;;;;;48.80;19.05;;;;;;;13.35;63.80;101452.78;5023332;28;20029;-70
2022/12/25 00:34:54;;;;;;;52.90;19.75;;;;;;;13.34;64.23;101450.31;5011092;28;20045;-70
2022/12/25 00:37:19;;;;;;;56.42;18.35;;;;;;;13.39;64.15;101447.72;5013045;28;20060;-69
2022/12/25 00:39:47;;;;;;;49.10;16.77;;;;;;;13.50;64.23;101446.97;5012866;28;20033;-69
2022/12/25 00:42:18;;;;;;;70.63;20.02;;;;;;;13.42;64.76;101456.22;5013198;28;20042;-69
2022/12/25 00:44:47;;;;;;;61.65;19.13;;;;;;;13.74;63.86;101454.06;5013088;28;20099;-68
2022/12/25 00:47:14;;;;;;;62.60;18.63;;;;;;;13.88;63.27;101456.34;5012607;28;20459;-70
2022/12/25 00:49:39;;;;;;;60.65;18.77;;;;;;;13.88;63.44;101456.34;5012770;28;20045;-69
2022/12/25 00:52:05;;;;;;;63.00;18.88;;;;;;;13.71;64.32;101470.75;5012617;28;20398;-68
2022/12/25 00:54:31;;;;;;;53.25;17.15;;;;;;;13.81;63.85;101477.25;5000532;28;20038;-69
2022/12/25 00:56:56;;;;;;;64.53;18.88;;;;;;;13.51;64.76;101475.59;5010979;28;20095;-70
2022/12/25 00:59:22;;;;;;;60.58;17.65;;;;;;;13.91;63.84;101471.28;5013036;28;20018;-70
2022/12/25 01:01:47;;;;;;;60.80;17.90;;;;;;;13.75;64.34;101461.97;5011991;28;20211;-68
2022/12/25 01:04:13;;;;;;;62.15;21.67;;;;;;;13.75;65.18;101469.25;5012623;28;20053;-69
2022/12/25 01:06:39;;;;;;;62.38;17.85;;;;;;;13.50;65.58;101476.69;5010613;28;20045;-70
2022/12/25 01:11:49;;;;;;;65.57;17.48;;;;;;;14.23;63.92;101475.31;5012627;28;20386;-70
2022/12/25 01:14:14;;;;;;;58.30;16.27;;;;;;;14.44;62.88;101490.19;5011909;28;20116;-69
2022/12/25 01:16:40;;;;;;;66.88;17.50;;;;;;;14.21;64.12;101490.94;5011434;28;20037;-69
2022/12/25 01:19:05;;;;;;;61.10;19.13;;;;;;;14.18;64.32;101496.00;5012442;28;20446;-69
2022/12/25 01:21:31;;;;;;;71.45;17.70;;;;;;;14.44;63.78;101491.03;5012175;28;20482;-68
2022/12/25 01:23:56;;;;;;;62.00;19.88;;;;;;;14.19;64.31;101486.84;5012354;28;20072;-68
2022/12/25 01:26:24;;;;;;;56.78;18.27;;;;;;;14.13;64.80;101485.91;5012967;28;20061;-69
2022/12/25 01:28:50;;;;;;;46.80;17.67;;;;;;;14.46;63.77;101482.66;5012057;28;20038;-69
2022/12/25 01:31:17;;;;;;;56.58;18.10;;;;;;;14.16;64.83;101476.50;5011882;28;20057;-69
2022/12/25 01:33:44;;;;;;;57.13;17.50;;;;;;;14.48;63.61;101485.97;5012075;28;20532;-70
2022/12/25 01:36:30;;;;;;;59.35;16.77;;;;;;;14.56;63.44;101481.03;5012332;28;20712;-70
2022/12/25 01:38:55;;;;;;;61.28;16.67;;;;;;;14.50;62.96;101481.97;5011822;28;20033;-70
2022/12/25 01:41:23;;;;;;;57.42;16.98;;;;;;;14.54;63.34;101483.16;5011653;28;20045;-69
2022/12/25 01:44:26;;;;;;;65.85;19.98;;;;;;;14.65;62.54;101489.59;5011896;28;20037;-69
2022/12/25 01:46:52;;;;;;;59.38;16.35;;;;;;;14.52;62.67;101477.16;5011813;28;20095;-69
2022/12/25 01:49:21;;;;;;;64.10;15.90;;;;;;;14.25;64.05;101478.59;5011578;28;20068;-70
2022/12/25 01:51:54;;;;;;;58.47;15.98;;;;;;;14.35;63.16;101480.78;5011830;28;20037;-68
2022/12/25 01:54:24;;;;;;;62.78;17.60;;;;;;;14.55;63.24;101482.06;5011458;28;20044;-68
2022/12/25 01:56:54;;;;;;;49.00;16.17;;;;;;;14.39;63.69;101488.19;5012051;28;20034;-68
2022/12/25 01:59:23;;;;;;;62.60;16.63;;;;;;;14.58;63.36;101492.44;5011895;28;20038;-69
2022/12/25 02:01:49;;;;;;;59.33;16.92;;;;;;;14.57;63.17;101492.66;5011338;28;20054;-68
2022/12/25 02:04:37;;;;;;;49.90;15.63;;;;;;;14.68;63.03;101492.66;5011887;28;20474;-68
2022/12/25 02:07:12;;;;;;;45.17;14.70;;;;;;;14.69;62.62;101494.31;5011945;28;20083;-69
2022/12/25 02:09:37;;;;;;;48.78;16.23;;;;;;;14.68;62.87;101479.13;5011399;28;20136;-70
2022/12/25 02:12:04;;;;;;;61.00;16.08;;;;;;;14.67;62.78;101487.47;5011475;28;20117;-70
2022/12/25 02:14:33;;;;;;;55.35;16.00;;;;;;;14.59;63.18;101488.66;5012077;28;20382;-69
2022/12/25 02:17:04;;;;;;;49.35;16.42;;;;;;;14.53;63.13;101488.78;5011505;28;20042;-68
2022/12/25 02:19:50;;;;;;;;;;;;;;;14.43;64.03;101499.34;5012009;28;20521;-68
2022/12/25 02:22:39;;;;;;;60.75;16.77;;;;;;;14.44;63.44;101501.00;5006795;28;19944;-68
2022/12/25 02:25:20;;;;;;;53.65;16.73;;;;;;;14.74;62.94;101499.81;5011930;28;20048;-69
2022/12/25 02:27:59;;;;;;;51.40;15.98;;;;;;;14.72;62.69;101506.56;5012192;28;20041;-69
2022/12/25 02:30:25;;;;;;;49.15;13.85;;;;;;;14.68;62.74;101497.25;5015296;28;20042;-69
2022/12/25 02:35:52;;;;;;;41.35;14.35;;;;;;;14.76;62.46;101497.69;5015493;28;20088;-68
2022/12/25 02:38:23;;;;;;;63.00;15.63;;;;;;;14.60;62.60;101493.00;5015157;28;20021;-68
2022/12/25 02:40:54;;;;;;;57.13;15.60;;;;;;;14.65;62.35;101497.72;5015261;28;20042;-70
2022/12/25 03:08:54;;;;;;;37.15;13.18;;;;;;;14.37;62.45;101457.84;5015252;28;20068;-69
2022/12/25 03:11:31;;;;;;;48.05;14.38;;;;;;;14.34;62.29;101455.63;5014457;28;20050;-69
2022/12/25 03:16:49;;;;;;;48.85;15.20;;;;;;;14.41;62.48;101441.97;5014485;28;20041;-68
2022/12/25 03:27:32;;;;;;;45.53;15.02;;;;;;;14.78;62.15;101425.22;5014482;28;20509;-68
2022/12/25 03:32:57;;;;;;;32.75;13.85;;;;;;;14.75;62.51;101417.59;5014926;28;20083;-70
2022/12/25 03:36:03;;;;;;;34.55;13.55;;;;;;;14.80;62.50;101415.00;5014665;28;20095;-70
2022/12/25 04:37:14;;;;;;;39.50;16.48;;;;;;;15.17;65.45;101411.97;5012959;28;20378;-70
2022/12/25 04:39:40;;;;;;;57.35;18.27;;;;;;;15.35;64.60;101411.78;4994814;28;20121;-70
2022/12/25 04:42:05;;;;;;;49.72;17.73;;;;;;;15.36;64.87;101413.41;5012298;28;20113;-70
2022/12/25 04:44:30;;;;;;;51.50;18.55;;;;;;;15.38;64.44;101416.69;5012480;28;20120;-70
2022/12/25 04:46:56;;;;;;;48.75;18.23;;;;;;;15.35;64.23;101420.69;5012180;28;20096;-70
2022/12/25 04:49:21;;;;;;;56.03;20.13;;;;;;;15.77;63.55;101419.34;5012320;28;20052;-68
2022/12/25 04:51:47;;;;;;;51.58;17.85;;;;;;;15.70;63.11;101426.00;5010881;28;20053;-68
2022/12/25 04:54:12;;;;;;;49.10;18.17;;;;;;;15.38;64.52;101427.53;5011872;28;20026;-69
2022/12/25 04:56:37;;;;;;;48.28;19.08;;;;;;;15.72;63.45;101427.38;5012460;28;20034;-69
2022/12/25 04:59:03;;;;;;;54.75;18.70;;;;;;;15.32;65.12;101425.78;5011767;28;20037;-69
2022/12/25 05:01:28;;;;;;;49.28;19.48;;;;;;;15.02;66.55;101428.72;5009617;28;20046;-70
2022/12/25 05:03:53;;;;;;;51.00;18.75;;;;;;;15.28;66.25;101425.44;5011389;28;20128;-69
2022/12/25 05:06:19;;;;;;;47.75;18.20;;;;;;;15.22;66.65;101423.69;5011803;28;20049;-69
2022/12/25 05:08:45;;;;;;;50.05;18.63;;;;;;;15.44;65.54;101413.88;5005261;28;20045;-69
2022/12/25 05:11:13;;;;;;;42.20;16.70;;;;;;;15.62;64.45;101412.84;4991883;28;20092;-69
2022/12/25 05:13:38;;;;;;;43.65;17.75;;;;;;;15.83;64.24;101412.09;5008606;28;20036;-69
2022/12/25 05:16:06;;;;;;;37.13;17.23;;;;;;;15.37;65.23;101417.78;5011752;28;20042;-69
2022/12/25 05:18:31;;;;;;;45.22;18.25;;;;;;;15.70;65.06;101423.28;5011822;28;20443;-69
2022/12/25 05:20:57;;;;;;;51.97;19.02;;;;;;;15.75;64.28;101413.34;5010302;28;20053;-70
2022/12/25 05:23:22;;;;;;;42.53;18.27;;;;;;;16.08;63.60;101417.13;5012213;28;20113;-69
2022/12/25 05:25:48;;;;;;;45.42;19.05;;;;;;;15.95;63.30;101412.03;5011820;28;20065;-70
2022/12/25 05:28:13;;;;;;;36.25;17.92;;;;;;;15.94;63.43;101411.19;5011765;28;20034;-69
2022/12/25 05:30:38;;;;;;;47.65;19.60;;;;;;;15.77;63.88;101416.63;5011760;28;20041;-70
2022/12/25 05:33:04;;;;;;;42.35;18.98;;;;;;;16.06;63.29;101414.66;5011838;28;20026;-70
2022/12/25 05:35:29;;;;;;;45.00;17.05;;;;;;;15.96;63.47;101403.63;5012275;28;20141;-69
2022/12/25 05:37:55;;;;;;;48.30;18.48;;;;;;;16.05;63.00;101395.94;5011669;28;20037;-68
2022/12/25 05:40:20;;;;;;;35.58;17.52;;;;;;;16.25;62.90;101393.53;5011788;28;20074;-69
2022/12/25 05:42:45;;;;;;;38.10;18.95;;;;;;;16.14;63.20;101399.84;5011672;28;20045;-70
2022/12/25 05:45:11;;;;;;;39.42;19.50;;;;;;;16.09;63.58;101391.66;5011674;28;20470;-69
2022/12/25 05:47:37;;;;;;;46.55;18.83;;;;;;;16.16;62.84;101395.00;5012203;28;20048;-69
2022/12/25 05:50:03;;;;;;;57.80;19.58;;;;;;;16.25;62.80;101391.66;5011603;28;20100;-69
2022/12/25 05:52:32;;;;;;;36.90;17.20;;;;;;;15.60;64.50;101386.00;5011633;28;20498;-69
2022/12/25 05:54:59;;;;;;;38.58;18.67;;;;;;;16.02;64.31;101388.31;5011632;28;20061;-69
2022/12/25 05:57:28;;;;;;;38.33;18.65;;;;;;;16.15;63.32;101386.06;4993904;28;20053;-69
2022/12/25 05:59:53;;;;;;;38.88;17.63;;;;;;;16.12;63.32;101383.00;5011992;28;20033;-68
2022/12/25 06:02:18;;;;;;;34.78;17.73;;;;;;;16.19;63.31;101383.66;5010841;28;20050;-69
2022/12/25 06:04:44;;;;;;;55.83;19.02;;;;;;;16.08;63.08;101387.31;5011489;28;20056;-68
2022/12/25 06:07:09;;;;;;;40.65;18.08;;;;;;;16.05;63.42;101387.78;5011912;28;20526;-71
2022/12/25 06:09:34;;;;;;;35.50;15.63;;;;;;;15.76;63.74;101384.38;5011644;28;20048;-69
2022/12/25 06:12:00;;;;;;;38.33;17.08;;;;;;;16.08;62.99;101395.44;5011667;28;20108;-69
2022/12/25 06:14:25;;;;;;;40.55;15.93;;;;;;;15.81;63.78;101376.31;5012115;28;20466;-69
2022/12/25 06:16:52;;;;;;;38.63;15.73;;;;;;;15.98;63.44;101381.72;5011139;28;20570;-69
2022/12/25 06:19:18;;;;;;;49.28;15.60;;;;;;;16.35;61.61;101366.56;5011508;28;20042;-70
2022/12/25 06:21:44;;;;;;;35.63;15.98;;;;;;;16.35;61.45;101370.06;5010317;28;20089;-69
2022/12/25 06:24:09;;;;;;;33.95;14.85;;;;;;;16.45;61.16;101367.50;5011797;28;20026;-69
2022/12/25 06:26:35;;;;;;;34.75;16.23;;;;;;;16.29;61.45;101362.97;5011996;28;20057;-71
2022/12/25 06:29:00;;;;;;;38.83;15.25;;;;;;;16.40;61.08;101361.19;5011444;28;20042;-69
2022/12/25 06:31:25;;;;;;;42.78;14.90;;;;;;;16.19;61.60;101353.84;5011126;28;20490;-70
2022/12/25 06:33:51;;;;;;;34.67;16.08;;;;;;;16.23;61.06;101346.84;4992794;28;20057;-69
2022/12/25 06:36:28;;;;;;;42.17;15.85;;;;;;;16.18;61.60;101350.31;5011636;28;20168;-70
2022/12/25 06:38:53;;;;;;;29.15;14.55;;;;;;;16.23;61.60;101350.41;5011731;28;20018;-69
2022/12/25 06:41:21;;;;;;;33.17;14.52;;;;;;;16.41;60.43;101352.00;5011224;28;20584;-69
2022/12/25 06:43:58;;;;;;;34.55;15.00;;;;;;;16.21;61.07;101344.41;5011379;28;20617;-68
2022/12/25 06:46:26;;;;;;;27.77;13.30;;;;;;;16.36;61.25;101341.06;5009735;28;20767;-70
2022/12/25 06:48:51;;;;;;;33.90;15.77;;;;;;;16.24;61.05;101334.91;5011090;28;20104;-69
2022/12/25 06:51:19;;;;;;;40.88;14.48;;;;;;;16.42;60.42;101340.88;5011308;28;20101;-71
2022/12/25 06:53:46;;;;;;;35.25;15.05;;;;;;;16.00;62.13;101342.44;4994045;28;20022;-69
2022/12/25 06:56:14;;;;;;;39.92;14.75;;;;;;;16.13;61.77;101346.69;5011662;28;20041;-69
2022/12/25 06:58:53;;;;;;;36.83;14.45;;;;;;;16.02;62.35;101334.09;5010996;28;20124;-69
2022/12/25 07:01:24;;;;;;;32.20;13.82;;;;;;;16.27;61.28;101332.56;5011161;28;20065;-68
2022/12/25 07:03:54;;;;;;;47.15;13.55;;;;;;;15.94;62.22;101329.88;5011729;28;20481;-69
2022/12/25 07:06:19;;;;;;;39.20;13.90;;;;;;;15.54;64.05;101331.97;5011420;28;20137;-71
2022/12/25 07:08:45;;;;;;;32.15;15.05;;;;;;;15.96;62.59;101329.66;5011774;28;20454;-70
2022/12/25 07:11:10;;;;;;;32.08;13.77;;;;;;;16.00;62.50;101331.59;5010807;28;20069;-68
2022/12/25 07:13:36;;;;;;;35.30;14.45;;;;;;;15.66;63.18;101324.56;5009361;28;20041;-69
2022/12/25 07:16:03;;;;;;;34.47;14.23;;;;;;;16.16;62.10;101332.63;5013387;28;20566;-70
2022/12/25 07:18:30;;;;;;;36.80;16.30;;;;;;;15.45;64.15;101328.81;5014420;28;20040;-70
2022/12/25 07:20:58;;;;;;;28.70;12.55;;;;;;;15.59;63.39;101332.84;5014939;28;20054;-69
2022/12/25 07:23:24;;;;;;;29.90;14.38;;;;;;;15.46;65.12;101333.19;5014343;28;20069;-69
2022/12/25 07:25:57;;;;;;;36.28;15.70;;;;;;;15.71;63.98;101339.03;5014118;28;20045;-68
2022/12/25 07:28:23;;;;;;;24.58;12.93;;;;;;;15.44;64.51;101331.78;5013923;28;20036;-69
2022/12/25 07:30:49;;;;;;;25.75;13.88;;;;;;;15.68;64.50;101336.78;5013739;28;20126;-68
2022/12/25 07:33:15;;;;;;;29.70;13.30;;;;;;;15.79;63.40;101343.19;5013704;28;20037;-67
2022/12/25 07:35:40;;;;;;;32.22;13.25;;;;;;;15.89;63.29;101343.38;5013961;28;20048;-69
2022/12/25 07:38:06;;;;;;;29.50;12.50;;;;;;;16.14;62.36;101346.44;5013545;28;20037;-69
2022/12/25 07:40:31;;;;;;;23.52;12.63;;;;;;;16.05;62.13;101341.69;5013721;28;20643;-69
2022/12/25 07:42:56;;;;;;;36.10;12.73;;;;;;;16.15;61.81;101342.69;5001601;28;20041;-69
2022/12/25 07:45:22;;;;;;;29.65;14.27;;;;;;;16.15;62.20;101345.41;5013621;28;20542;-70
2022/12/25 07:47:47;;;;;;;36.55;13.23;;;;;;;15.84;63.44;101346.00;5014061;28;20092;-69
2022/12/25 07:50:12;;;;;;;24.63;11.52;;;;;;;15.94;62.48;101337.22;5013751;28;20032;-70
2022/12/25 07:52:38;;;;;;;26.27;11.68;;;;;;;15.81;63.28;101339.19;5013464;28;20125;-68
2022/12/25 07:55:04;;;;;;;37.97;13.18;;;;;;;16.03;62.46;101335.72;5013889;28;20040;-71
2022/12/25 07:57:29;;;;;;;22.60;12.43;;;;;;;15.97;62.45;101334.81;5013250;28;20124;-68
2022/12/25 07:59:54;;;;;;;24.33;11.80;;;;;;;15.81;62.28;101343.78;5014396;28;20171;-70
2022/12/25 08:02:26;;;;;;;32.15;13.18;;;;;;;16.24;60.92;101348.47;5012859;28;20227;-69
2022/12/25 08:04:53;;;;;;;23.92;11.93;;;;;;;16.03;61.61;101358.22;5013795;28;20525;-69
2022/12/25 08:07:18;;;;;;;31.05;12.38;;;;;;;15.97;62.14;101358.38;5013253;28;20120;-70
2022/12/25 08:09:43;;;;;;;25.85;12.65;;;;;;;16.25;61.36;101367.25;5013353;28;20796;-70
2022/12/25 08:12:09;;;;;;;33.67;12.38;;;;;;;16.18;61.52;101379.31;5013200;28;20120;-70
2022/12/25 08:14:34;;;;;;;30.65;11.63;;;;;;;16.32;61.26;101367.88;5013280;28;20101;-69
2022/12/25 08:16:59;;;;;;;24.67;10.73;;;;;;;16.10;62.16;101377.84;4995444;28;20065;-69
2022/12/25 08:19:25;;;;;;;27.92;11.80;;;;;;;16.32;61.23;101370.56;5010761;28;20068;-70
2022/12/25 08:21:50;;;;;;;21.88;11.60;;;;;;;15.42;63.90;101353.72;5012553;28;20462;-69
2022/12/25 08:24:15;;;;;;;24.25;11.45;;;;;;;16.18;61.93;101358.44;5012495;28;20045;-70
2022/12/25 08:26:41;;;;;;;24.85;11.02;;;;;;;16.49;60.69;101360.53;5013138;28;20136;-69
2022/12/25 08:29:06;;;;;;;22.80;11.02;;;;;;;16.51;60.48;101363.00;5009828;28;20458;-69
2022/12/25 08:31:33;;;;;;;21.50;10.98;;;;;;;16.25;60.79;101353.69;5012481;28;20401;-69
2022/12/25 08:34:01;;;;;;;22.73;11.77;;;;;;;16.40;60.60;101361.19;5012521;28;20108;-70
2022/12/25 08:36:26;;;;;;;32.88;13.45;;;;;;;16.15;61.45;101380.66;5009945;28;20667;-71
2022/12/25 08:38:52;;;;;;;23.05;11.15;;;;;;;16.04;61.09;101391.59;5012969;28;20030;-69
2022/12/25 08:41:17;;;;;;;24.08;11.15;;;;;;;15.59;62.75;101389.75;5012285;28;20034;-70
2022/12/25 08:43:43;;;;;;;25.20;12.07;;;;;;;15.85;62.17;101393.72;5012120;28;20045;-70
2022/12/25 08:46:09;;;;;;;27.02;11.48;;;;;;;16.31;60.65;101398.75;5012418;28;20040;-70
2022/12/25 08:48:35;;;;;;;28.88;11.98;;;;;;;16.28;60.58;101393.00;5012232;28;20125;-68
2022/12/25 08:51:01;;;;;;;23.33;11.73;;;;;;;15.99;61.52;101388.78;5012358;28;20044;-69
2022/12/25 08:53:27;;;;;;;23.63;11.77;;;;;;;15.97;62.04;101374.66;5010384;28;20030;-70
2022/12/25 08:55:56;;;;;;;29.83;12.27;;;;;;;16.36;60.97;101366.28;5012739;28;20116;-69
2022/12/25 08:58:22;;;;;;;35.97;11.53;;;;;;;15.91;62.32;101373.75;5011376;28;20387;-69
2022/12/25 09:00:47;;;;;;;28.88;11.68;;;;;;;16.26;61.47;101368.88;5011987;28;20044;-68
2022/12/25 09:03:13;;;;;;;27.00;11.73;;;;;;;16.13;62.36;101357.56;5011790;28;20502;-68
2022/12/25 09:05:38;;;;;;;24.17;11.68;;;;;;;16.38;61.16;101353.31;5014782;28;20042;-70
2022/12/25 09:08:04;;;;;;;42.65;11.75;;;;;;;16.42;60.48;101338.16;5011905;28;20560;-69
2022/12/25 09:10:29;;;;;;;25.77;12.23;;;;;;;16.48;60.39;101344.47;4994203;28;20044;-70
2022/12/25 09:12:55;;;;;;;30.92;11.23;;;;;;;16.58;60.45;101342.75;5009145;28;20030;-68
2022/12/25 09:15:20;;;;;;;27.13;12.50;;;;;;;16.45;60.22;101350.41;5011929;28;20026;-70
2022/12/25 09:17:46;;;;;;;30.45;12.70;;;;;;;16.21;61.44;101352.53;5012208;28;20390;-70
2022/12/25 09:20:11;;;;;;;29.65;11.45;;;;;;;16.51;61.04;101354.88;5011732;28;20103;-69
2022/12/25 09:22:36;;;;;;;25.23;10.93;;;;;;;16.55;60.51;101348.66;5011899;28;20034;-70
2022/12/25 09:25:02;;;;;;;21.48;12.32;;;;;;;16.58;60.89;101353.59;5011924;28;20652;-68
2022/12/25 09:27:27;;;;;;;25.23;12.70;;;;;;;16.57;60.62;101357.38;5009477;28;20030;-70
2022/12/25 09:29:53;;;;;;;23.85;11.13;;;;;;;16.43;61.10;101356.06;4994057;28;20046;-69
2022/12/25 09:32:18;;;;;;;26.55;12.70;;;;;;;16.52;60.56;101354.63;5010600;28;20112;-68
2022/12/25 09:34:43;;;;;;;26.63;11.15;;;;;;;16.53;60.93;101349.97;5011695;28;20133;-68
2022/12/25 09:37:09;;;;;;;33.60;12.57;;;;;;;16.55;60.89;101354.09;5011421;28;20593;-70
2022/12/25 09:39:34;;;;;;;33.55;12.98;;;;;;;16.31;61.81;101354.56;5011755;28;20030;-69
2022/12/25 09:42:12;;;;;;;27.70;11.63;;;;;;;16.28;62.36;101344.19;5012217;28;20021;-68
2022/12/25 09:44:46;;;;;;;28.55;12.25;;;;;;;16.36;61.77;101351.91;5012029;28;20124;-70
2022/12/25 09:47:20;;;;;;;27.33;12.32;;;;;;;16.20;61.82;101344.63;5011721;28;20508;-69
2022/12/25 09:50:06;;;;;;;23.92;12.20;;;;;;;15.94;62.47;101353.47;5010232;28;20164;-69
2022/12/25 09:52:44;;;;;;;26.05;12.90;;;;;;;16.40;61.97;101363.91;4994210;28;20490;-69
2022/12/25 09:55:19;;;;;;;27.00;15.15;;;;;;;16.22;62.20;101356.88;5011368;28;20045;-69
2022/12/25 09:57:51;;;;;;;33.92;19.30;;;;;;;16.42;62.32;101356.34;5011244;28;20053;-68
2022/12/25 10:00:20;;;;;;;25.23;16.88;;;;;;;16.44;62.13;101346.88;5006647;28;20033;-69
2022/12/25 10:03:10;;;;;;;32.63;17.17;;;;;;;16.54;61.71;101338.91;5010701;28;20189;-70
2022/12/25 10:06:06;;;;;;;36.38;16.92;;;;;;;16.56;62.03;101355.75;5006985;28;20076;-67
2022/12/25 10:08:51;;;;;;;28.23;13.10;;;;;;;16.34;63.12;101351.34;5010999;28;20045;-71
2022/12/25 10:11:41;;;;;;;28.25;12.52;;;;;;;16.52;61.62;101360.03;5006221;28;20516;-69
2022/12/25 10:14:09;;;;;;;26.33;12.90;;;;;;;16.24;62.45;101359.31;5005587;28;20034;-69
2022/12/25 10:17:09;;;;;;;27.10;13.18;;;;;;;16.57;61.52;101359.25;5004005;28;20030;-70
2022/12/25 10:20:20;;;;;;;26.27;13.10;;;;;;;16.12;62.71;101343.16;5004740;28;20431;-69
2022/12/25 10:22:50;;;;;;;22.92;10.52;;;;;;;16.19;62.75;101349.25;4931141;29;20050;-69
2022/12/25 10:25:22;;;;;;;27.70;12.25;;;;;;;16.60;62.23;101345.22;4930797;29;20039;-69
2022/12/25 10:28:13;;;;;;;28.25;14.80;;;;;;;16.24;63.07;101345.75;4932555;29;20060;-69
2022/12/25 10:30:43;;;;;;;31.13;15.40;;;;;;;16.52;61.76;101345.66;4882076;29;20118;-70
2022/12/25 10:33:11;;;;;;;30.52;14.00;;;;;;;16.77;61.58;101345.13;4865579;29;20040;-70
2022/12/25 10:35:38;;;;;;;22.55;12.15;;;;;;;16.77;61.60;101351.38;4884685;29;20413;-69
2022/12/25 10:38:13;;;;;;;22.17;10.73;;;;;;;16.63;61.79;101345.53;4874526;29;20116;-70
2022/12/25 10:40:59;;;;;;;26.65;15.35;;;;;;;16.79;61.63;101349.22;4866659;29;20120;-68
2022/12/25 10:43:35;;;;;;;30.55;15.68;;;;;;;16.74;61.74;101348.34;4888122;29;20037;-70
2022/12/25 10:46:09;;;;;;;24.35;13.63;;;;;;;16.71;61.98;101327.16;4888651;29;20049;-69
2022/12/25 10:48:42;;;;;;;18.58;10.98;;;;;;;16.78;62.06;101323.19;4888633;29;20041;-68
2022/12/25 10:51:07;;;;;;;21.08;9.57;;;;;;;16.87;61.78;101316.22;4894531;29;20072;-71
2022/12/25 10:53:39;;;;;;;21.83;11.45;;;;;;;16.91;61.54;101313.81;4894157;29;20055;-69
2022/12/25 10:56:05;;;;;;;21.98;11.13;;;;;;;16.92;61.63;101310.84;4892143;29;20041;-69
2022/12/25 10:58:32;;;;;;;26.50;11.63;;;;;;;16.88;61.36;101288.00;4932756;29;20109;-69
2022/12/25 11:01:01;;;;;;;24.88;11.90;;;;;;;16.94;61.57;101291.59;4950931;29;20130;-70
2022/12/25 11:03:32;;;;;;;23.70;13.88;;;;;;;16.83;61.48;101319.69;4934458;29;20264;-70
2022/12/25 11:05:57;;;;;;;24.08;12.60;;;;;;;16.87;61.41;101299.94;4952887;28;20528;-69
2022/12/25 11:08:26;;;;;;;21.88;12.18;;;;;;;16.92;61.69;101272.03;4999802;28;20037;-70
2022/12/25 11:11:07;;;;;;;27.58;11.15;;;;;;;17.00;61.46;101266.13;5013563;28;20037;-70
2022/12/25 11:13:46;;;;;;;22.10;9.95;;;;;;;16.99;61.25;101249.00;5011960;28;20029;-70
2022/12/25 11:16:40;;;;;;;18.92;9.93;;;;;;;16.96;62.00;101244.06;5011961;28;20056;-71
2022/12/25 11:19:29;;;;;;;22.58;9.23;;;;;;;16.78;62.17;101246.34;5011350;28;20498;-70
2022/12/25 11:21:57;;;;;;;18.02;9.63;;;;;;;16.97;61.74;101243.03;5011666;28;20053;-72
2022/12/25 11:24:31;;;;;;;22.08;10.02;;;;;;;16.89;61.75;101248.91;5013567;28;20100;-70
2022/12/25 11:27:03;;;;;;;15.60;9.32;;;;;;;16.99;61.70;101242.75;5015157;28;20034;-73
2022/12/25 11:29:40;;;;;;;18.88;10.40;;;;;;;16.83;62.19;101241.78;5014681;28;20049;-72
2022/12/25 11:32:15;;;;;;;19.95;10.32;;;;;;;16.81;62.18;101235.78;5014959;28;20473;-71
2022/12/25 11:34:44;;;;;;;15.85;9.82;;;;;;;16.87;62.08;101226.63;5014497;28;20415;-71
2022/12/25 11:37:18;;;;;;;23.85;10.40;;;;;;;16.95;62.01;101239.75;5014326;28;20037;-70
2022/12/25 11:39:43;;;;;;;17.58;10.77;;;;;;;16.90;61.82;101233.44;4996672;28;20052;-72
2022/12/25 11:42:27;;;;;;;26.58;10.05;;;;;;;17.04;61.46;101221.88;5014445;28;20033;-72
2022/12/25 11:45:01;;;;;;;16.20;9.90;;;;;;;16.95;61.75;101214.47;5014589;28;20032;-70
2022/12/25 11:47:59;;;;;;;20.95;11.38;;;;;;;17.09;61.65;101204.84;5014361;28;20042;-71
2022/12/25 11:50:35;;;;;;;17.90;9.43;;;;;;;16.99;61.49;101200.13;5014026;28;20046;-70
2022/12/25 11:53:05;;;;;;;21.02;11.13;;;;;;;16.68;63.17;101185.47;5014058;28;20034;-70
2022/12/25 11:55:43;;;;;;;13.70;9.88;;;;;;;17.04;61.79;101183.09;5014032;28;20387;-72
2022/12/25 11:58:31;;;;;;;20.50;9.52;;;;;;;16.96;62.01;101192.50;5011926;28;20038;-69
2022/12/25 12:01:01;;;;;;;21.40;9.73;;;;;;;17.17;61.58;101178.03;5005191;28;20041;-72
2022/12/25 12:03:36;;;;;;;29.55;17.30;;;;;;;17.24;61.79;101161.47;5013209;28;20044;-72
2022/12/25 12:06:15;;;;;;;23.40;11.65;;;;;;;17.01;62.20;101153.72;5013823;28;20038;-70
2022/12/25 12:08:41;;;;;;;21.45;9.70;;;;;;;17.22;61.93;101144.63;5014229;28;20030;-71
2022/12/25 12:11:30;;;;;;;15.82;10.80;;;;;;;16.98;61.71;101143.38;5013544;28;20041;-70
2022/12/25 12:14:24;;;;;;;23.55;10.77;;;;;;;17.41;61.40;101149.38;5013447;28;20041;-70
2022/12/25 12:16:49;;;;;;;17.10;9.82;;;;;;;17.29;61.40;101142.53;5013533;28;20046;-72
2022/12/25 12:19:27;;;;;;;15.38;9.90;;;;;;;17.45;61.29;101128.75;5012079;28;20049;-69
2022/12/25 12:21:55;;;;;;;14.93;9.75;;;;;;;17.47;61.04;101125.78;5012918;28;20157;-74
2022/12/25 12:24:23;;;;;;;20.17;9.90;;;;;;;17.39;60.88;101137.16;5012562;28;20038;-70
2022/12/25 12:27:26;;;;;;;23.58;10.38;;;;;;;17.28;61.06;101141.69;4996541;28;20044;-69
2022/12/25 12:29:58;;;;;;;17.77;10.07;;;;;;;16.97;61.86;101123.56;4952490;28;20043;-69
2022/12/25 12:32:32;;;;;;;18.70;9.95;;;;;;;16.91;62.74;101134.63;4953347;29;20091;-70
2022/12/25 12:35:04;;;;;;;24.25;11.93;;;;;;;16.99;62.04;101140.41;4965817;28;20039;-72
2022/12/25 12:37:34;;;;;;;20.88;12.73;;;;;;;17.10;61.63;101142.09;4972176;28;20047;-73
2022/12/25 12:40:00;;;;;;;21.60;12.30;;;;;;;16.96;61.83;101149.06;4966368;28;20050;-71
2022/12/25 12:42:31;;;;;;;29.80;13.57;;;;;;;17.19;61.96;101145.16;4953006;28;20547;-72
2022/12/25 12:45:05;;;;;;;;;;;;;;;17.09;61.46;101136.94;4953282;28;20058;-73
2022/12/25 12:47:45;;;;;;;20.90;9.65;;;;;;;16.82;62.12;101145.16;4952927;29;19946;-71
2022/12/25 12:50:36;;;;;;;17.70;11.67;;;;;;;16.60;62.85;101137.09;4952623;28;20130;-71
2022/12/25 12:53:20;;;;;;;20.40;10.75;;;;;;;17.03;62.14;101125.22;4952777;28;20507;-74
2022/12/25 12:55:46;;;;;;;19.42;11.35;;;;;;;17.07;61.66;101125.53;4952453;28;20520;-70
2022/12/25 12:58:26;;;;;;;25.23;12.40;;;;;;;17.07;61.62;101117.38;4952553;28;20047;-70
2022/12/25 13:01:07;;;;;;;21.15;12.77;;;;;;;17.14;61.83;101126.13;4952105;28;20570;-71
2022/12/25 13:03:38;;;;;;;20.25;12.77;;;;;;;17.11;62.17;101119.31;4952049;28;20082;-71
2022/12/25 13:06:34;;;;;;;20.25;11.02;;;;;;;17.32;61.38;101109.38;4971421;28;20038;-71